Time;durP1;ratioP1;P1;durP2;ratioP2;P2;SDS_P1;SDS_P2;PMS_P1;PMS_P2;Temp;Humidity;BMP_temperature;BMP_pressure;BME280_temperature;BME280_humidity;BME280_pressure;Samples;Min_cycle;Max_cycle;Signal;HPM_P1;HPM_P2
2023/09/19 00:00:48;;;;;;;1.02;0.95;;;;;;;25.67;48.53;99349.59;5350205;26;33762;-79
2023/09/19 00:03:17;;;;;;;1.95;1.15;;;;;;;25.32;49.37;99340.09;5350102;26;33260;-79
2023/09/19 00:05:45;;;;;;;0.80;0.80;;;;;;;25.29;49.47;99344.81;5368161;26;34249;-80
2023/09/19 00:08:14;;;;;;;1.95;1.77;;;;;;;25.55;48.86;99341.03;5349874;26;33035;-79
2023/09/19 00:10:43;;;;;;;8.43;0.82;;;;;;;25.33;49.41;99348.03;5368315;26;33998;-80
2023/09/19 00:13:13;;;;;;;1.15;1.05;;;;;;;25.28;49.61;99355.81;5350079;26;33111;-79
2023/09/19 00:15:48;;;;;;;0.95;0.77;;;;;;;25.27;49.57;99349.56;5350432;26;34354;-79
2023/09/19 00:18:24;;;;;;;1.58;1.48;;;;;;;25.50;49.08;99338.87;5348845;26;32729;-79
2023/09/19 00:20:52;;;;;;;8.30;1.83;;;;;;;25.58;48.85;99347.94;5350269;26;35203;-79
2023/09/19 00:23:20;;;;;;;1.48;1.37;;;;;;;25.39;49.42;99341.06;5350095;26;33376;-79
2023/09/19 00:25:50;;;;;;;2.20;2.00;;;;;;;25.08;50.24;99349.94;5349534;26;34017;-79
2023/09/19 00:28:19;;;;;;;1.90;1.73;;;;;;;25.46;49.40;99342.09;5349880;26;34643;-79
2023/09/19 00:30:49;;;;;;;1.17;0.95;;;;;;;25.35;49.70;99345.13;5368204;26;32692;-79
2023/09/19 00:33:19;;;;;;;1.35;1.25;;;;;;;25.46;49.57;99337.53;5368365;26;32907;-79
2023/09/19 00:35:54;;;;;;;1.25;1.15;;;;;;;25.34;50.03;99340.75;5349779;26;33612;-79
2023/09/19 00:38:26;;;;;;;1.23;0.93;;;;;;;25.41;49.93;99336.34;5368106;26;33578;-79
2023/09/19 00:40:54;;;;;;;1.95;1.42;;;;;;;25.36;50.03;99341.44;5350303;26;33840;-79
2023/09/19 00:43:27;;;;;;;1.58;1.48;;;;;;;25.17;50.60;99332.69;5348286;26;34071;-79
2023/09/19 00:45:55;;;;;;;0.80;0.75;;;;;;;25.28;50.36;99340.44;5367825;26;34268;-79
2023/09/19 00:48:24;;;;;;;1.33;0.65;;;;;;;25.40;50.19;99338.22;5330882;26;33134;-79
2023/09/19 00:50:53;;;;;;;2.03;1.60;;;;;;;25.60;49.62;99340.53;5350486;26;33474;-80
2023/09/19 00:53:23;;;;;;;1.00;0.95;;;;;;;25.38;50.23;99340.25;5349311;26;33538;-79
2023/09/19 00:55:52;;;;;;;6.28;2.03;;;;;;;25.13;50.91;99338.63;5331264;26;33452;-79
2023/09/19 00:58:20;;;;;;;3.75;2.08;;;;;;;25.07;51.21;99333.84;5367815;26;33641;-80
2023/09/19 01:00:49;;;;;;;2.47;1.17;;;;;;;25.28;50.55;99332.31;5349271;26;33601;-79
2023/09/19 01:03:18;;;;;;;1.67;1.37;;;;;;;25.24;50.71;99339.09;5349733;26;32208;-79
2023/09/19 01:05:46;;;;;;;4.37;1.02;;;;;;;25.37;50.39;99338.56;5331072;26;32841;-79
2023/09/19 01:08:14;;;;;;;1.33;1.12;;;;;;;25.28;50.57;99339.59;5349554;26;33547;-78
2023/09/19 01:10:49;;;;;;;4.47;1.50;;;;;;;25.26;50.74;99338.94;5367702;26;32942;-79
2023/09/19 01:13:34;;;;;;;10.48;1.42;;;;;;;25.18;50.96;99337.09;5368350;26;33945;-79
2023/09/19 01:16:11;;;;;;;2.00;1.48;;;;;;;25.16;51.07;99327.44;5331277;26;32808;-79
2023/09/19 01:18:48;;;;;;;1.30;0.88;;;;;;;25.17;51.04;99332.69;5350463;26;34710;-79
2023/09/19 01:21:30;;;;;;;22.30;1.25;;;;;;;25.39;50.63;99330.25;5368285;26;33992;-79
2023/09/19 01:24:23;;;;;;;2.42;1.67;;;;;;;25.51;50.21;99329.72;5350431;26;33951;-79
2023/09/19 01:27:07;;;;;;;0.80;0.80;;;;;;;25.52;50.21;99333.28;5367412;26;34623;-79
2023/09/19 01:29:39;;;;;;;0.68;0.68;;;;;;;25.47;50.33;99338.34;5368556;26;33892;-79
2023/09/19 01:32:09;;;;;;;2.50;1.48;;;;;;;25.10;51.46;99331.69;5330318;26;33022;-79
2023/09/19 01:34:48;;;;;;;2.05;1.67;;;;;;;25.44;50.44;99327.88;5367647;26;32195;-79
2023/09/19 01:37:21;;;;;;;1.73;1.62;;;;;;;25.33;50.83;99318.28;5368184;26;34041;-79
2023/09/19 01:40:16;;;;;;;1.67;1.23;;;;;;;25.41;50.63;99314.75;5350189;26;34042;-79
2023/09/19 01:43:18;;;;;;;2.20;1.98;;;;;;;25.51;50.39;99312.66;5350858;26;34066;-79
2023/09/19 01:45:53;;;;;;;1.33;1.23;;;;;;;25.28;51.10;99318.81;5388130;26;33031;-79
2023/09/19 01:48:55;;;;;;;4.05;2.92;;;;;;;25.24;51.14;99322.03;5368009;26;32762;-79
2023/09/19 01:51:34;;;;;;;2.95;1.52;;;;;;;25.09;51.68;99324.59;5293077;26;34619;-79
2023/09/19 01:54:15;;;;;;;3.97;0.90;;;;;;;25.18;51.34;99320.88;5349548;26;34585;-79
2023/09/19 01:56:53;;;;;;;1.27;1.10;;;;;;;25.09;51.76;99319.19;5367788;26;32390;-79
2023/09/19 01:59:27;;;;;;;3.83;1.98;;;;;;;25.17;51.51;99316.50;5349586;26;34522;-79
2023/09/19 02:01:56;;;;;;;4.45;1.30;;;;;;;25.28;51.17;99321.50;5349803;26;34968;-79
2023/09/19 02:04:24;;;;;;;2.78;1.87;;;;;;;25.43;50.77;99316.22;5349835;26;33760;-79
2023/09/19 02:06:53;;;;;;;3.67;1.92;;;;;;;25.34;51.02;99322.69;5330759;26;33096;-79
2023/09/19 02:09:21;;;;;;;2.40;2.22;;;;;;;25.15;51.59;99321.19;5330710;26;33789;-79
2023/09/19 02:11:51;;;;;;;4.30;1.67;;;;;;;25.26;51.24;99325.44;5350281;26;33222;-79
2023/09/19 02:14:19;;;;;;;3.22;1.83;;;;;;;25.25;51.36;99316.44;5367613;26;33914;-79
2023/09/19 02:16:49;;;;;;;3.78;1.62;;;;;;;25.28;51.21;99313.41;5367795;26;33358;-79
2023/09/19 02:19:17;;;;;;;2.08;1.23;;;;;;;25.19;51.49;99319.00;5368717;26;34326;-79
2023/09/19 02:21:45;;;;;;;1.62;1.52;;;;;;;25.19;51.41;99319.00;5367641;26;34919;-79
2023/09/19 02:24:15;;;;;;;14.73;1.52;;;;;;;25.05;51.80;99317.81;5349624;26;35754;-79
2023/09/19 02:26:43;;;;;;;2.85;2.33;;;;;;;25.10;51.64;99311.94;5346722;26;32573;-79
2023/09/19 02:29:12;;;;;;;3.25;1.85;;;;;;;24.98;52.04;99314.97;5349190;26;33360;-79
2023/09/19 02:31:41;;;;;;;1.02;1.02;;;;;;;25.12;51.57;99312.63;5348914;26;33829;-79
2023/09/19 02:34:09;;;;;;;1.37;1.35;;;;;;;24.91;52.26;99323.91;5367402;26;33935;-80
2023/09/19 02:36:37;;;;;;;0.77;0.73;;;;;;;25.01;51.92;99316.47;5349648;26;34089;-79
2023/09/19 02:39:06;;;;;;;1.70;1.20;;;;;;;25.08;51.65;99320.22;5348997;26;34352;-80
2023/09/19 02:41:33;;;;;;;1.17;1.08;;;;;;;25.02;51.81;99323.59;5361036;26;181390;-80
2023/09/19 02:44:01;;;;;;;1.62;1.52;;;;;;;24.91;52.01;99326.62;5349176;26;33867;-79
2023/09/19 02:46:30;;;;;;;3.75;1.65;;;;;;;24.84;52.24;99322.94;5368294;26;33464;-79
2023/09/19 02:48:58;;;;;;;1.33;1.00;;;;;;;24.93;52.01;99319.22;5349362;26;32671;-79
2023/09/19 02:51:25;;;;;;;2.67;1.92;;;;;;;24.85;52.20;99321.91;5368098;26;34065;-79
2023/09/19 02:53:54;;;;;;;1.45;1.33;;;;;;;24.88;52.09;99322.41;5329865;26;32808;-78
2023/09/19 02:56:22;;;;;;;4.82;2.03;;;;;;;24.62;52.82;99322.56;5349107;26;32994;-79
2023/09/19 02:58:51;;;;;;;2.42;1.30;;;;;;;24.63;52.82;99318.88;5349673;26;34292;-79
2023/09/19 03:01:19;;;;;;;6.70;1.80;;;;;;;24.74;52.55;99313.13;5367822;26;33204;-79
2023/09/19 03:03:47;;;;;;;2.05;1.27;;;;;;;24.67;52.70;99314.81;5350582;26;33904;-79
2023/09/19 03:06:15;;;;;;;2.62;0.98;;;;;;;24.70;52.50;99319.88;5368576;26;33774;-79
2023/09/19 03:08:44;;;;;;;4.68;2.03;;;;;;;24.61;52.91;99328.16;5349702;26;33616;-80
2023/09/19 03:11:14;;;;;;;7.90;1.90;;;;;;;24.65;52.70;99340.31;5350169;26;33198;-79
2023/09/19 03:13:45;;;;;;;4.35;1.83;;;;;;;24.76;52.41;99339.97;5368017;26;33377;-79
2023/09/19 03:16:15;;;;;;;1.83;1.73;;;;;;;24.53;53.01;99340.63;5350428;26;33901;-79
2023/09/19 03:18:44;;;;;;;4.22;2.28;;;;;;;24.42;53.38;99324.78;5367611;26;33319;-79
2023/09/19 03:21:12;;;;;;;4.95;2.10;;;;;;;24.75;52.46;99332.88;5331603;26;34295;-79
2023/09/19 03:23:43;;;;;;;12.48;3.45;;;;;;;25.04;51.81;99332.34;5349680;26;33460;-79
2023/09/19 03:26:12;;;;;;;1.65;1.55;;;;;;;24.95;52.02;99327.97;5368787;26;33101;-79
2023/09/19 03:28:42;;;;;;;2.95;2.25;;;;;;;24.84;52.39;99331.03;5349934;26;34605;-79
2023/09/19 03:31:10;;;;;;;3.15;1.35;;;;;;;24.70;52.80;99317.19;5368701;26;33796;-79
2023/09/19 03:33:39;;;;;;;2.33;1.55;;;;;;;24.78;52.52;99333.41;5330899;26;34666;-79
2023/09/19 03:36:07;;;;;;;1.83;1.73;;;;;;;24.63;52.88;99332.34;5330928;26;32076;-80
2023/09/19 03:38:35;;;;;;;2.92;2.03;;;;;;;24.69;52.76;99334.41;5349951;26;33813;-79
2023/09/19 03:41:04;;;;;;;1.58;1.48;;;;;;;24.51;53.23;99334.56;5367366;26;34133;-80
2023/09/19 03:43:33;;;;;;;1.95;1.37;;;;;;;24.66;52.77;99329.34;5346809;26;33874;-80
2023/09/19 03:46:03;;;;;;;1.77;1.67;;;;;;;24.49;53.26;99328.47;5346016;26;33402;-80
2023/09/19 03:48:32;;;;;;;1.98;1.23;;;;;;;24.33;53.75;99327.59;5326933;26;33876;-80
2023/09/19 03:51:02;;;;;;;2.28;2.08;;;;;;;24.43;53.36;99339.94;5327599;26;32905;-80
2023/09/19 03:53:29;;;;;;;4.70;2.22;;;;;;;24.48;53.25;99334.88;5345848;26;33645;-80
2023/09/19 03:55:57;;;;;;;4.30;2.17;;;;;;;24.44;53.36;99338.94;5326658;26;34210;-80
2023/09/19 03:58:25;;;;;;;2.03;1.65;;;;;;;24.28;53.96;99339.72;5308929;26;33427;-80
2023/09/19 04:00:58;;;;;;;1.60;1.12;;;;;;;24.18;54.28;99346.28;5346194;26;33872;-80
2023/09/19 04:03:34;;;;;;;2.53;2.30;;;;;;;24.19;54.25;99343.41;5327238;26;33283;-80
2023/09/19 04:06:02;;;;;;;1.75;1.65;;;;;;;24.20;54.34;99337.00;5327962;26;34116;-79
2023/09/19 04:08:32;;;;;;;1.10;1.08;;;;;;;24.21;54.40;99343.25;5327285;26;33968;-79
2023/09/19 04:10:59;;;;;;;2.58;1.95;;;;;;;24.36;53.96;99349.72;5345943;26;34791;-79
2023/09/19 04:13:28;;;;;;;4.57;2.15;;;;;;;24.27;54.51;99350.69;5327321;26;34265;-79
2023/09/19 04:15:56;;;;;;;2.45;1.48;;;;;;;24.52;53.56;99349.75;5327629;26;33539;-80
2023/09/19 04:18:25;;;;;;;2.85;1.83;;;;;;;24.54;53.76;99349.56;5345841;26;34681;-80
2023/09/19 04:20:53;;;;;;;4.25;2.90;;;;;;;24.64;53.64;99350.28;5364137;26;33980;-80
2023/09/19 04:23:21;;;;;;;8.02;2.72;;;;;;;24.84;53.62;99348.06;5308755;26;34754;-80
2023/09/19 04:25:50;;;;;;;0.90;0.90;;;;;;;24.62;54.17;99357.69;5327491;26;32017;-80
2023/09/19 04:28:18;;;;;;;0.80;0.70;;;;;;;24.45;54.44;99374.84;5327682;26;34244;-80
2023/09/19 04:30:46;;;;;;;2.28;0.55;;;;;;;24.36;54.41;99381.25;5308230;26;32807;-79
2023/09/19 04:33:14;;;;;;;0.52;0.52;;;;;;;24.31;53.88;99379.03;5308458;26;34203;-79
2023/09/19 04:35:42;;;;;;;0.68;0.62;;;;;;;24.34;53.74;99389.47;5327752;26;33412;-79
2023/09/19 04:38:11;;;;;;;0.10;0.10;;;;;;;23.75;54.63;99378.66;5308943;26;33557;-79
2023/09/19 04:40:39;;;;;;;0.77;0.30;;;;;;;23.62;55.20;99389.00;5345390;26;33873;-79
2023/09/19 04:43:07;;;;;;;0.08;0.08;;;;;;;23.66;55.32;99405.75;5336424;26;34648;-79
2023/09/19 04:45:35;;;;;;;0.22;0.20;;;;;;;23.18;57.19;99407.94;5325029;26;32804;-79
2023/09/19 04:48:03;;;;;;;0.20;0.20;;;;;;;23.30;56.97;99404.97;5324324;26;33008;-78
2023/09/19 04:50:31;;;;;;;0.03;0.03;;;;;;;22.93;58.29;99412.28;5360728;26;34395;-79
2023/09/19 04:52:59;;;;;;;0.10;0.05;;;;;;;23.27;57.55;99411.53;5342567;26;34049;-78
2023/09/19 04:55:27;;;;;;;0.10;0.10;;;;;;;23.24;57.57;99401.91;5342896;26;33392;-79
2023/09/19 04:57:55;;;;;;;0.22;0.22;;;;;;;22.69;59.16;99406.63;5361395;26;33876;-79
2023/09/19 05:00:23;;;;;;;0.03;0.00;;;;;;;22.90;58.61;99411.75;5342972;26;35680;-78
2023/09/19 05:02:52;;;;;;;1.75;0.30;;;;;;;22.52;59.71;99424.47;5342378;26;34506;-78
2023/09/19 05:05:20;;;;;;;0.00;0.00;;;;;;;22.78;58.79;99421.03;5342759;26;33354;-78
2023/09/19 05:07:48;;;;;;;0.17;0.17;;;;;;;22.79;58.80;99428.09;5342232;26;34214;-78
2023/09/19 05:10:18;;;;;;;0.00;0.00;;;;;;;22.77;58.65;99443.56;5342298;26;32837;-78
2023/09/19 05:12:48;;;;;;;4.85;1.23;;;;;;;22.61;58.68;99439.72;5360705;26;34581;-79
2023/09/19 05:15:17;;;;;;;0.00;0.00;;;;;;;22.78;57.98;99429.09;5343308;26;33527;-79
2023/09/19 05:17:50;;;;;;;0.00;0.00;;;;;;;22.83;57.66;99434.84;5324047;26;33186;-79
2023/09/19 05:20:29;;;;;;;0.70;0.47;;;;;;;22.37;58.95;99445.69;5343672;26;33944;-79
2023/09/19 05:23:02;;;;;;;0.70;0.57;;;;;;;22.34;58.80;99445.13;5344411;26;32616;-80
2023/09/19 05:25:37;;;;;;;0.10;0.10;;;;;;;22.46;58.15;99454.69;5342988;26;32537;-79
2023/09/19 05:28:07;;;;;;;0.00;0.00;;;;;;;22.08;59.02;99461.94;5361440;26;34336;-79
2023/09/19 05:30:36;;;;;;;0.00;0.00;;;;;;;22.47;57.96;99451.00;5342954;26;33169;-79
2023/09/19 05:33:04;;;;;;;0.00;0.00;;;;;;;22.14;58.95;99456.00;5342829;26;33584;-78
2023/09/19 05:35:32;;;;;;;0.10;0.00;;;;;;;22.36;58.20;99453.88;5341439;26;33980;-78
2023/09/19 05:38:00;;;;;;;0.03;0.03;;;;;;;22.45;57.73;99443.06;5363693;26;34003;-79
2023/09/19 05:40:28;;;;;;;0.00;0.00;;;;;;;22.19;58.83;99447.47;5364138;26;33630;-78
2023/09/19 05:42:55;;;;;;;0.00;0.00;;;;;;;22.46;57.56;99439.41;5362842;26;34193;-78
2023/09/19 05:45:24;;;;;;;0.00;0.00;;;;;;;22.43;57.66;99450.44;5344484;26;32282;-78
2023/09/19 05:48:04;;;;;;;0.00;0.00;;;;;;;22.55;57.73;99452.91;5363361;26;34776;-78
2023/09/19 05:50:33;;;;;;;0.00;0.00;;;;;;;22.38;57.98;99462.66;5347737;26;34734;-78
2023/09/19 05:53:04;;;;;;;0.08;0.08;;;;;;;22.23;58.23;99459.63;5345371;26;33955;-78
2023/09/19 05:55:32;;;;;;;0.10;0.10;;;;;;;22.58;57.28;99452.63;5345449;26;33010;-78
2023/09/19 05:58:03;;;;;;;0.10;0.10;;;;;;;21.59;60.51;99463.94;5324931;26;33342;-78
2023/09/19 06:00:31;;;;;;;0.10;0.10;;;;;;;22.04;59.18;99459.69;5364513;26;34755;-78
2023/09/19 06:02:59;;;;;;;1.23;0.28;;;;;;;22.19;58.79;99469.84;5342928;26;32660;-78
2023/09/19 06:05:29;;;;;;;0.15;0.15;;;;;;;21.93;59.70;99466.09;5343076;26;32438;-78
2023/09/19 06:07:59;;;;;;;0.37;0.30;;;;;;;22.17;58.86;99469.16;5342898;26;33461;-78
2023/09/19 06:10:29;;;;;;;0.00;0.00;;;;;;;21.97;59.38;99465.66;5359849;26;33693;-78
2023/09/19 06:12:57;;;;;;;0.25;0.25;;;;;;;21.87;59.81;99469.38;5342580;26;33882;-78
2023/09/19 06:15:26;;;;;;;0.10;0.10;;;;;;;22.35;58.57;99471.03;5342488;26;32523;-80
2023/09/19 06:17:56;;;;;;;0.30;0.15;;;;;;;22.06;59.58;99474.66;5361069;26;32735;-79
2023/09/19 06:20:25;;;;;;;0.10;0.10;;;;;;;22.42;58.60;99477.50;5342873;26;33632;-79
2023/09/19 06:22:53;;;;;;;0.00;0.00;;;;;;;22.29;58.95;99479.69;5325213;26;33090;-79
2023/09/19 06:25:22;;;;;;;0.22;0.20;;;;;;;21.80;60.54;99473.66;5342918;26;33499;-79
2023/09/19 06:27:53;;;;;;;0.00;0.00;;;;;;;21.92;60.13;99485.91;5343524;26;33669;-79
2023/09/19 06:30:24;;;;;;;0.95;0.80;;;;;;;21.95;60.19;99488.31;5343336;26;34610;-79
2023/09/19 06:33:00;;;;;;;0.00;0.00;;;;;;;22.09;60.08;99493.22;5344717;26;32812;-79
2023/09/19 06:35:29;;;;;;;0.00;0.00;;;;;;;21.52;62.04;99491.56;5327784;26;33490;-79
2023/09/19 06:37:57;;;;;;;0.55;0.55;;;;;;;21.79;61.52;99498.81;5343604;26;34018;-78
2023/09/19 06:40:28;;;;;;;0.10;0.10;;;;;;;21.48;62.63;99497.19;5345622;26;33363;-79
2023/09/19 06:42:56;;;;;;;0.00;0.00;;;;;;;22.10;61.33;99489.53;5326911;26;32629;-78
2023/09/19 06:45:26;;;;;;;0.55;0.35;;;;;;;21.79;62.28;99499.69;5345995;26;32681;-78
2023/09/19 06:47:57;;;;;;;0.08;0.08;;;;;;;21.60;63.04;99505.97;5327140;26;33607;-78
2023/09/19 06:50:27;;;;;;;0.25;0.10;;;;;;;21.70;63.19;99505.94;5328677;26;33064;-78
2023/09/19 06:52:57;;;;;;;0.00;0.00;;;;;;;21.42;64.15;99521.13;5345736;26;33995;-78
2023/09/19 06:55:27;;;;;;;0.00;0.00;;;;;;;21.02;65.87;99524.75;5345903;26;33365;-78
2023/09/19 06:57:57;;;;;;;2.53;0.62;;;;;;;20.95;66.54;99543.25;5364017;26;33178;-78
2023/09/19 07:00:25;;;;;;;0.00;0.00;;;;;;;21.52;64.32;99539.91;5344341;26;34670;-78
2023/09/19 07:02:57;;;;;;;0.82;0.10;;;;;;;21.26;66.10;99550.34;5363884;26;32912;-78
2023/09/19 07:05:27;;;;;;;0.00;0.00;;;;;;;21.22;65.67;99553.31;5363845;26;33319;-78
2023/09/19 07:07:55;;;;;;;0.15;0.15;;;;;;;21.19;66.35;99558.13;5363929;26;33874;-78
2023/09/19 07:10:23;;;;;;;0.10;0.00;;;;;;;21.34;65.45;99558.56;5345691;26;34186;-78
2023/09/19 07:13:04;;;;;;;0.20;0.20;;;;;;;21.52;64.85;99562.25;5327323;26;32859;-79
2023/09/19 07:15:38;;;;;;;1.55;0.62;;;;;;;21.30;65.97;99573.22;5345415;26;32229;-78
2023/09/19 07:18:07;;;;;;;0.10;0.10;;;;;;;21.24;66.65;99569.28;5346073;26;32960;-78
2023/09/19 07:20:34;;;;;;;0.00;0.00;;;;;;;21.31;66.14;99574.94;5363900;26;33742;-78
2023/09/19 07:23:02;;;;;;;0.00;0.00;;;;;;;20.91;67.41;99567.81;5344000;26;33946;-78
2023/09/19 07:25:30;;;;;;;0.00;0.00;;;;;;;20.97;67.33;99575.31;5326782;26;32302;-78
2023/09/19 07:27:59;;;;;;;0.00;0.00;;;;;;;20.93;68.25;99571.22;5345057;26;33618;-80
2023/09/19 07:30:28;;;;;;;0.13;0.13;;;;;;;21.06;67.45;99576.31;5345323;26;34303;-78
2023/09/19 07:32:57;;;;;;;0.00;0.00;;;;;;;21.03;67.70;99576.59;5364619;26;32806;-78
2023/09/19 07:35:25;;;;;;;0.75;0.75;;;;;;;20.94;68.13;99578.28;5327442;26;32854;-78
2023/09/19 07:37:53;;;;;;;1.35;0.55;;;;;;;21.03;67.64;99579.28;5341892;26;32897;-78
2023/09/19 07:40:23;;;;;;;0.10;0.10;;;;;;;21.18;67.23;99576.06;5344099;26;34820;-79
2023/09/19 07:42:51;;;;;;;0.00;0.00;;;;;;;21.07;67.43;99578.84;5343491;26;32926;-79
2023/09/19 07:45:19;;;;;;;0.20;0.20;;;;;;;21.08;67.77;99582.37;5325602;26;32207;-79
2023/09/19 07:47:48;;;;;;;0.70;0.55;;;;;;;21.28;66.54;99586.81;5343886;26;33595;-79
2023/09/19 07:50:18;;;;;;;0.10;0.00;;;;;;;21.00;67.61;99595.69;5342862;26;33483;-80
2023/09/19 07:52:48;;;;;;;0.15;0.15;;;;;;;21.22;66.38;99600.78;5344179;26;33166;-79
2023/09/19 07:55:17;;;;;;;0.00;0.00;;;;;;;21.10;67.38;99600.06;5343674;26;32330;-79
2023/09/19 07:57:44;;;;;;;0.70;0.35;;;;;;;20.88;68.81;99600.28;5344645;26;32888;-79
2023/09/19 08:00:14;;;;;;;0.00;0.00;;;;;;;20.96;67.85;99609.38;5346092;26;33496;-78
2023/09/19 08:02:43;;;;;;;0.37;0.37;;;;;;;21.16;67.45;99610.25;5346131;26;33994;-79
2023/09/19 08:05:12;;;;;;;0.00;0.00;;;;;;;21.33;67.10;99610.59;5345757;26;34182;-79
2023/09/19 08:07:42;;;;;;;0.00;0.00;;;;;;;21.25;67.38;99618.47;5344971;26;33470;-80
2023/09/19 08:10:13;;;;;;;0.47;0.30;;;;;;;21.09;68.12;99625.22;5345513;26;33766;-79
2023/09/19 08:12:46;;;;;;;5.82;0.52;;;;;;;21.21;67.36;99621.41;5366005;26;34095;-79
2023/09/19 08:15:19;;;;;;;0.00;0.00;;;;;;;21.12;67.57;99629.44;5346223;26;33011;-79
2023/09/19 08:17:48;;;;;;;1.00;0.80;;;;;;;21.05;67.64;99631.00;5345805;26;34688;-79
2023/09/19 08:20:17;;;;;;;0.17;0.17;;;;;;;20.97;67.41;99627.16;5346281;26;33221;-79
2023/09/19 08:22:54;;;;;;;0.30;0.30;;;;;;;21.04;67.81;99632.00;5327997;26;33781;-79
2023/09/19 08:25:25;;;;;;;0.10;0.00;;;;;;;21.12;67.40;99624.09;5364252;26;33481;-79
2023/09/19 08:27:54;;;;;;;0.40;0.30;;;;;;;21.22;67.14;99630.31;5363816;26;34573;-80
2023/09/19 08:30:26;;;;;;;0.00;0.00;;;;;;;21.15;66.89;99632.72;5345832;26;33836;-79
2023/09/19 08:32:58;;;;;;;0.00;0.00;;;;;;;20.98;67.20;99646.78;5328445;26;32587;-79
2023/09/19 08:35:27;;;;;;;0.00;0.00;;;;;;;21.22;66.74;99644.63;5346437;26;32398;-79
2023/09/19 08:37:56;;;;;;;1.77;0.20;;;;;;;21.36;66.62;99654.09;5364167;26;33987;-80
2023/09/19 08:40:25;;;;;;;0.13;0.13;;;;;;;21.56;65.73;99657.69;5364012;26;33274;-79
2023/09/19 08:42:54;;;;;;;0.15;0.10;;;;;;;21.54;66.14;99669.53;5364215;26;33063;-79
2023/09/19 08:45:24;;;;;;;0.62;0.62;;;;;;;21.66;65.40;99677.34;5346115;26;32852;-80
2023/09/19 08:48:36;;;;;;;0.93;0.20;;;;;;;21.72;65.45;99686.69;5326546;26;33624;-79
2023/09/19 08:51:08;;;;;;;0.32;0.30;;;;;;;21.63;66.21;99692.88;5364665;26;34076;-79
2023/09/19 08:53:59;;;;;;;0.05;0.05;;;;;;;21.67;66.34;99703.22;5326988;26;32946;-79
2023/09/19 08:56:28;;;;;;;0.00;0.00;;;;;;;21.33;67.28;99707.28;5346337;26;33349;-79
2023/09/19 08:59:02;;;;;;;0.10;0.10;;;;;;;21.26;68.11;99712.28;5327769;26;33725;-79
2023/09/19 09:01:32;;;;;;;0.25;0.25;;;;;;;21.68;66.88;99706.75;5345922;26;33967;-79
2023/09/19 09:04:03;;;;;;;0.00;0.00;;;;;;;21.71;66.38;99696.56;5344464;26;34470;-79
2023/09/19 09:06:32;;;;;;;0.13;0.10;;;;;;;21.73;66.78;99674.94;5345967;26;33275;-79
2023/09/19 09:09:00;;;;;;;7.20;0.75;;;;;;;21.71;67.00;99684.97;5345761;26;33550;-79
2023/09/19 09:11:29;;;;;;;0.43;0.43;;;;;;;22.04;66.62;99669.41;5345848;26;34170;-79
2023/09/19 09:13:57;;;;;;;0.20;0.20;;;;;;;22.03;66.47;99641.69;5345463;26;34562;-80
2023/09/19 09:16:25;;;;;;;0.17;0.15;;;;;;;21.55;68.16;99637.16;5346003;26;32365;-79
2023/09/19 09:18:54;;;;;;;3.17;0.60;;;;;;;22.00;67.01;99625.81;5327347;26;33665;-79
2023/09/19 09:21:25;;;;;;;0.30;0.20;;;;;;;22.14;66.89;99628.09;5365537;26;34119;-79
2023/09/19 09:23:54;;;;;;;0.85;0.30;;;;;;;22.43;65.67;99621.78;5345778;26;33951;-80
2023/09/19 09:26:47;;;;;;;0.80;0.80;;;;;;;22.23;66.52;99621.84;5344625;26;32867;-80
2023/09/19 09:29:15;;;;;;;0.30;0.30;;;;;;;21.95;67.65;99628.09;5310580;26;32930;-80
2023/09/19 09:31:48;;;;;;;0.30;0.30;;;;;;;22.21;66.95;99637.25;5346688;26;34221;-79
2023/09/19 09:34:16;;;;;;;0.60;0.43;;;;;;;21.82;67.82;99643.66;5344808;26;34505;-80
2023/09/19 09:36:48;;;;;;;0.20;0.20;;;;;;;21.78;67.67;99653.00;5364219;26;34424;-79
2023/09/19 09:39:31;;;;;;;;;;;;;;;21.57;67.54;99656.69;5346160;26;32668;-80
2023/09/19 09:41:59;;;;;;;0.93;0.68;;;;;;;21.51;68.50;99667.13;5364360;26;34220;-79
2023/09/19 09:44:31;;;;;;;0.20;0.20;;;;;;;21.96;67.09;99667.44;5364232;26;34227;-79
2023/09/19 09:47:27;;;;;;;0.73;0.73;;;;;;;22.06;66.97;99679.00;5346574;26;33127;-79
2023/09/19 09:49:54;;;;;;;0.20;0.20;;;;;;;22.10;66.87;99669.66;5364374;26;35384;-80
2023/09/19 09:52:24;;;;;;;0.10;0.10;;;;;;;22.08;66.72;99668.97;5364113;26;35223;-80
2023/09/19 09:55:01;;;;;;;0.35;0.20;;;;;;;21.78;67.86;99674.50;5345831;26;33754;-80
2023/09/19 09:57:30;;;;;;;0.10;0.10;;;;;;;21.78;67.02;99669.12;5346068;26;33150;-80
2023/09/19 10:00:16;;;;;;;0.65;0.40;;;;;;;21.92;67.42;99666.84;5345945;26;33939;-79
2023/09/19 10:02:46;;;;;;;0.55;0.55;;;;;;;22.07;67.31;99672.63;5347397;26;34014;-80
2023/09/19 10:05:28;;;;;;;0.40;0.40;;;;;;;22.22;66.71;99673.94;5364270;26;34076;-80
2023/09/19 10:08:12;;;;;;;0.37;0.35;;;;;;;21.99;66.15;99662.62;5364473;26;34222;-80
2023/09/19 10:13:18;;;;;;;1.00;0.50;;;;;;;22.45;66.23;99657.44;5363978;26;33668;-80
2023/09/19 10:15:50;;;;;;;0.30;0.30;;;;;;;22.79;66.13;99665.84;5346458;26;34618;-80
2023/09/19 10:18:40;;;;;;;0.95;0.95;;;;;;;22.89;64.97;99665.81;5348525;26;32952;-80
2023/09/19 10:21:09;;;;;;;0.93;0.52;;;;;;;22.88;65.34;99662.25;5344661;26;33912;-80
2023/09/19 10:23:38;;;;;;;0.20;0.10;;;;;;;23.10;64.40;99669.09;5363836;26;34747;-80
2023/09/19 10:26:06;;;;;;;0.40;0.30;;;;;;;23.21;64.68;99670.72;5345392;26;34520;-80
2023/09/19 10:28:35;;;;;;;0.73;0.65;;;;;;;23.25;64.77;99672.97;5326858;26;32523;-80
2023/09/19 10:31:03;;;;;;;1.33;1.10;;;;;;;23.38;63.70;99669.06;5363788;26;33703;-80
2023/09/19 10:33:37;;;;;;;0.00;0.00;;;;;;;23.03;63.51;99673.41;5345271;26;34665;-79
2023/09/19 10:36:05;;;;;;;0.50;0.50;;;;;;;22.92;64.30;99676.28;5363786;26;35132;-80
2023/09/19 10:38:35;;;;;;;3.40;1.27;;;;;;;23.07;64.32;99673.94;5345378;26;33394;-80
2023/09/19 10:41:05;;;;;;;0.60;0.60;;;;;;;23.31;63.78;99686.84;5364110;26;33560;-80
2023/09/19 10:43:33;;;;;;;0.30;0.20;;;;;;;22.99;63.55;99683.63;5363575;26;34048;-80
2023/09/19 10:46:09;;;;;;;4.07;0.40;;;;;;;23.13;62.56;99684.97;5345598;26;33832;-80
2023/09/19 10:48:37;;;;;;;3.92;0.62;;;;;;;23.30;62.43;99677.91;5345241;26;33488;-80
2023/09/19 10:51:09;;;;;;;0.47;0.40;;;;;;;23.09;62.79;99688.97;5360752;26;33645;-80
2023/09/19 10:53:47;;;;;;;0.22;0.22;;;;;;;23.30;62.41;99688.69;5326855;26;32812;-80
2023/09/19 10:56:20;;;;;;;0.10;0.10;;;;;;;23.31;62.78;99686.84;5363173;26;34233;-80
2023/09/19 10:58:49;;;;;;;0.22;0.22;;;;;;;23.40;62.24;99691.31;5345244;26;32249;-80
2023/09/19 11:01:18;;;;;;;0.00;0.00;;;;;;;23.49;61.79;99698.50;5345622;26;32736;-80
2023/09/19 11:03:49;;;;;;;1.23;1.08;;;;;;;23.39;63.57;99705.78;5344609;26;33623;-80
2023/09/19 11:06:22;;;;;;;0.77;0.25;;;;;;;23.70;61.54;99696.41;5345706;26;32947;-80
2023/09/19 11:11:52;;;;;;;0.20;0.20;;;;;;;24.20;61.55;99711.16;5364227;26;34129;-80
2023/09/19 11:14:24;;;;;;;0.10;0.10;;;;;;;23.88;60.45;99703.63;5364337;26;34895;-80
2023/09/19 11:17:07;;;;;;;0.40;0.40;;;;;;;23.87;60.23;99704.63;5365523;26;33226;-80
2023/09/19 11:20:25;;;;;;;0.20;0.10;;;;;;;24.53;60.34;99696.06;5362623;26;32600;-80
2023/09/19 11:25:34;;;;;;;0.50;0.30;;;;;;;24.82;54.08;99692.19;5363802;26;33220;-80
2023/09/19 11:28:08;;;;;;;0.30;0.30;;;;;;;24.71;54.07;99686.06;5364223;26;32874;-80
2023/09/19 11:30:38;;;;;;;0.22;0.22;;;;;;;25.59;52.18;99688.44;5365821;26;34270;-80
2023/09/19 11:33:23;;;;;;;0.10;0.10;;;;;;;25.80;51.81;99685.28;5343912;26;32761;-80
2023/09/19 11:36:03;;;;;;;0.40;0.22;;;;;;;26.13;49.50;99691.56;5361880;26;34052;-80
2023/09/19 11:38:47;;;;;;;0.00;0.00;;;;;;;25.51;51.03;99691.13;5364817;26;33016;-80
2023/09/19 11:41:21;;;;;;;0.03;0.03;;;;;;;25.89;49.87;99678.03;5343407;26;33946;-80
2023/09/19 11:43:55;;;;;;;0.35;0.30;;;;;;;24.93;52.46;99683.81;5361529;26;33611;-80
2023/09/19 11:46:25;;;;;;;0.08;0.08;;;;;;;25.34;51.81;99681.28;5343281;26;33689;-80
2023/09/19 11:48:54;;;;;;;25.50;0.85;;;;;;;24.81;53.69;99682.41;5363313;26;33430;-80
2023/09/19 11:51:29;;;;;;;0.10;0.10;;;;;;;25.51;52.09;99675.75;5344789;26;33413;-80
2023/09/19 11:53:59;;;;;;;0.35;0.35;;;;;;;25.85;51.31;99676.66;5345785;26;33645;-79
2023/09/19 11:56:28;;;;;;;2.05;1.23;;;;;;;25.80;51.49;99677.16;5363786;26;34280;-80
2023/09/19 11:58:57;;;;;;;0.05;0.05;;;;;;;25.69;51.10;99677.47;5345888;26;33958;-79
2023/09/19 12:01:30;;;;;;;0.10;0.10;;;;;;;25.70;51.03;99680.00;5344976;26;33360;-80